Time;durP1;ratioP1;P1;durP2;ratioP2;P2;SDS_P1;SDS_P2;PMS_P1;PMS_P2;Temp;Humidity;BMP_temperature;BMP_pressure;BME280_temperature;BME280_humidity;BME280_pressure;Samples;Min_cycle;Max_cycle;Signal;HPM_P1;HPM_P2
2022/06/13 00:02:09;;;;;;;2.60;2.40;;;;;;;23.44;47.91;95613.34;5060132;28;20240;-80
2022/06/13 00:04:35;;;;;;;2.80;2.60;;;;;;;23.35;48.38;95680.56;5079386;28;20603;-80
2022/06/13 00:07:02;;;;;;;2.70;2.50;;;;;;;23.00;49.36;95678.50;5078060;28;20258;-80
2022/06/13 00:09:29;;;;;;;2.70;2.50;;;;;;;22.60;52.29;95694.69;5078835;28;20228;-80
2022/06/13 00:11:55;;;;;;;4.35;2.83;;;;;;;22.46;55.12;95701.38;5068241;28;20240;-80
2022/06/13 00:14:22;;;;;;;4.97;3.00;;;;;;;22.28;58.59;95705.94;5057968;28;20228;-80
2022/06/13 00:16:49;;;;;;;4.88;3.40;;;;;;;22.12;62.11;95721.75;5058516;28;20224;-80
2022/06/13 00:19:16;;;;;;;3.65;3.05;;;;;;;21.88;63.06;95734.28;5057699;28;20620;-80
2022/06/13 00:21:42;;;;;;;4.10;3.70;;;;;;;21.61;65.18;95731.56;5064543;28;20222;-80
2022/06/13 00:24:10;;;;;;;3.97;3.53;;;;;;;21.41;68.21;95739.94;5077216;28;20643;-80
2022/06/13 00:26:37;;;;;;;4.10;3.70;;;;;;;21.14;71.28;95739.78;5070441;28;20235;-79
2022/06/13 00:29:05;;;;;;;6.20;4.07;;;;;;;21.10;71.92;95740.50;5056951;28;20726;-80
2022/06/13 00:31:31;;;;;;;4.25;3.72;;;;;;;21.10;73.62;95748.34;5060168;28;20217;-79
2022/06/13 00:33:59;;;;;;;5.47;4.30;;;;;;;21.07;74.48;95744.38;5057547;28;20229;-80
2022/06/13 00:36:25;;;;;;;4.72;4.32;;;;;;;21.09;75.39;95739.69;5073608;28;20197;-80
2022/06/13 00:38:55;;;;;;;4.88;4.40;;;;;;;21.10;73.83;95733.44;5074479;28;20223;-80
2022/06/13 00:41:24;;;;;;;6.10;4.80;;;;;;;21.20;73.88;95733.59;5067383;28;20300;-79
2022/06/13 00:43:51;;;;;;;4.88;4.47;;;;;;;21.27;73.75;95728.22;5056662;28;20311;-80
2022/06/13 00:46:21;;;;;;;4.20;3.80;;;;;;;21.41;72.87;95737.31;5063974;28;20197;-79
2022/06/13 00:48:48;;;;;;;5.20;3.63;;;;;;;21.39;71.57;95749.88;5077385;28;20227;-80
2022/06/13 00:51:16;;;;;;;5.22;4.22;;;;;;;21.43;72.13;95786.88;5059128;28;20225;-80
2022/06/13 00:53:43;;;;;;;5.45;4.32;;;;;;;21.32;74.25;95817.34;5058808;28;20240;-80
2022/06/13 00:56:12;;;;;;;7.68;4.57;;;;;;;21.26;76.15;95813.06;5057185;28;20198;-80
2022/06/13 00:58:44;;;;;;;4.63;4.22;;;;;;;21.29;77.06;95816.00;5057689;28;20227;-79
2022/06/13 01:01:10;;;;;;;5.50;4.40;;;;;;;21.17;78.71;95820.47;5071929;28;20708;-80
2022/06/13 01:03:37;;;;;;;4.65;4.25;;;;;;;21.16;79.25;95811.06;5074502;28;20252;-80
2022/06/13 01:06:06;;;;;;;5.28;4.50;;;;;;;21.10;78.59;95803.34;5078139;28;20618;-80
2022/06/13 01:08:37;;;;;;;6.78;4.47;;;;;;;21.10;79.71;95798.09;5078081;28;20200;-79
2022/06/13 01:11:18;;;;;;;4.45;4.10;;;;;;;21.01;82.34;95772.31;5077605;28;20220;-80
2022/06/13 01:14:15;;;;;;;5.30;4.85;;;;;;;21.03;83.72;95740.66;5068335;28;20574;-80
2022/06/13 01:16:54;;;;;;;4.90;4.35;;;;;;;21.03;85.20;95757.16;5076794;28;20200;-80
2022/06/13 01:19:55;;;;;;;4.57;4.22;;;;;;;21.18;82.90;95777.53;5065621;28;20287;-79
2022/06/13 01:23:11;;;;;;;4.97;4.47;;;;;;;21.14;84.08;95765.97;5058377;28;20237;-79
2022/06/13 01:26:13;;;;;;;5.68;4.10;;;;;;;21.13;82.30;95776.69;5059475;28;20232;-80
2022/06/13 01:28:56;;;;;;;4.38;3.97;;;;;;;21.13;82.36;95789.78;5059357;28;20227;-79
2022/06/13 01:31:30;;;;;;;5.55;4.28;;;;;;;21.12;81.40;95788.19;5071278;28;20224;-79
2022/06/13 01:34:07;;;;;;;4.65;4.25;;;;;;;21.13;83.41;95795.81;5076640;28;20220;-80
2022/06/13 01:36:42;;;;;;;4.90;3.85;;;;;;;21.18;83.51;95801.09;5058570;28;20205;-80
2022/06/13 01:39:19;;;;;;;4.88;4.10;;;;;;;21.22;82.24;95810.13;5060620;28;20227;-80
2022/06/13 01:42:02;;;;;;;4.85;4.40;;;;;;;21.25;83.71;95819.31;5076970;28;20236;-80
2022/06/13 01:44:36;;;;;;;4.63;4.25;;;;;;;21.26;82.69;95829.56;5064351;28;20197;-78
2022/06/13 01:47:10;;;;;;;4.57;4.18;;;;;;;21.26;80.81;95829.56;5057831;28;20200;-79
2022/06/13 01:49:47;;;;;;;7.20;4.68;;;;;;;21.26;82.54;95813.06;5078259;28;20246;-80
2022/06/13 01:52:21;;;;;;;4.90;4.50;;;;;;;21.20;83.30;95800.91;5072469;28;20243;-79
2022/06/13 01:54:55;;;;;;;5.57;4.80;;;;;;;21.10;83.39;95808.59;5076410;28;20563;-80
2022/06/13 01:57:32;;;;;;;4.90;4.50;;;;;;;21.12;85.43;95817.00;5071186;28;20565;-79
2022/06/13 02:00:06;;;;;;;4.65;4.00;;;;;;;21.15;84.17;95819.94;5069929;28;20278;-80
2022/06/13 02:02:41;;;;;;;5.13;4.68;;;;;;;21.13;84.73;95826.44;5075385;28;20285;-79
2022/06/13 02:05:11;;;;;;;4.53;4.15;;;;;;;21.05;86.56;95832.84;5076059;28;20196;-80
2022/06/13 02:07:42;;;;;;;4.30;3.97;;;;;;;21.05;84.87;95843.31;5075640;28;20208;-80
2022/06/13 02:10:15;;;;;;;5.30;4.30;;;;;;;20.96;87.13;95857.84;5059996;28;20576;-80
2022/06/13 02:12:47;;;;;;;5.60;4.75;;;;;;;20.92;87.85;95843.63;5055790;28;20225;-79
2022/06/13 02:15:18;;;;;;;5.80;4.28;;;;;;;20.83;89.10;95837.16;5071582;28;20200;-79
2022/06/13 02:17:49;;;;;;;4.78;4.20;;;;;;;20.79;87.76;95836.03;5066057;28;20197;-80
2022/06/13 02:20:20;;;;;;;4.40;4.00;;;;;;;20.78;86.54;95840.50;5055623;28;20534;-80
2022/06/13 02:22:50;;;;;;;4.07;3.75;;;;;;;20.73;87.91;95839.59;5064817;28;20335;-79
2022/06/13 02:25:20;;;;;;;3.78;3.47;;;;;;;20.85;85.58;95835.09;5060015;28;20220;-79
2022/06/13 02:27:51;;;;;;;4.20;3.80;;;;;;;20.89;84.53;95807.44;5064765;28;20263;-80
2022/06/13 02:30:21;;;;;;;4.03;3.55;;;;;;;20.90;85.32;95801.19;5070966;28;20267;-79
2022/06/13 02:32:52;;;;;;;3.60;3.30;;;;;;;20.92;84.88;95813.00;5063885;28;20217;-81
2022/06/13 02:35:24;;;;;;;3.60;3.30;;;;;;;21.02;84.65;95812.38;5061959;28;20201;-79
2022/06/13 02:37:57;;;;;;;4.38;3.97;;;;;;;20.93;86.87;95803.31;5064589;28;20193;-80
2022/06/13 02:40:29;;;;;;;3.65;3.35;;;;;;;20.89;86.21;95805.63;5060714;28;20214;-80
2022/06/13 02:43:02;;;;;;;4.07;3.42;;;;;;;20.95;87.63;95804.69;5069981;28;20235;-80
2022/06/13 02:45:31;;;;;;;4.13;3.72;;;;;;;20.96;86.73;95795.81;5076773;28;20205;-80
2022/06/13 02:48:08;;;;;;;4.65;3.30;;;;;;;21.03;83.96;95806.09;5061520;28;20193;-79
2022/06/13 02:50:42;;;;;;;3.20;3.00;;;;;;;21.06;83.72;95791.75;5075654;28;20695;-80
2022/06/13 02:53:14;;;;;;;3.90;3.50;;;;;;;21.11;83.36;95789.22;5060802;28;20715;-79
2022/06/13 02:55:46;;;;;;;3.92;3.30;;;;;;;21.15;82.93;95808.66;5056189;28;20557;-79
2022/06/13 02:58:26;;;;;;;3.80;3.15;;;;;;;21.21;82.82;95810.34;5056693;28;20591;-79
2022/06/13 03:01:02;;;;;;;3.63;3.28;;;;;;;21.21;82.07;95828.69;5055339;28;20735;-80
2022/06/13 03:03:42;;;;;;;3.25;2.92;;;;;;;21.21;82.28;95832.09;5073415;28;20273;-80
2022/06/13 03:06:16;;;;;;;3.55;3.15;;;;;;;21.19;81.78;95823.66;5080803;28;20223;-80
2022/06/13 03:08:57;;;;;;;4.13;3.50;;;;;;;21.15;81.98;95812.09;5070370;28;20251;-80
2022/06/13 03:11:33;;;;;;;3.95;3.40;;;;;;;21.13;82.91;95816.75;5058179;28;20279;-79
2022/06/13 03:14:25;;;;;;;3.60;3.25;;;;;;;21.11;82.25;95824.06;5061457;28;20244;-79
2022/06/13 03:16:56;;;;;;;4.22;3.33;;;;;;;21.10;82.46;95826.91;5061272;28;20213;-80
2022/06/13 03:19:34;;;;;;;3.10;2.90;;;;;;;21.06;83.60;95823.16;5071256;28;20190;-78
2022/06/13 03:22:04;;;;;;;5.13;3.10;;;;;;;21.05;82.38;95804.03;5061032;28;20607;-80
2022/06/13 03:24:37;;;;;;;3.45;3.20;;;;;;;20.82;85.29;95772.75;5078704;28;20274;-79
2022/06/13 03:27:10;;;;;;;3.45;3.15;;;;;;;20.79;84.66;95752.28;5073685;28;20217;-79
2022/06/13 03:29:43;;;;;;;3.65;3.40;;;;;;;20.75;86.73;95736.28;5058754;28;20201;-79
2022/06/13 03:32:13;;;;;;;3.83;3.42;;;;;;;20.79;85.91;95765.38;5075259;28;20281;-79
2022/06/13 03:34:46;;;;;;;3.50;3.20;;;;;;;20.85;85.74;95754.75;5068094;28;20194;-79
2022/06/13 03:37:18;;;;;;;3.47;3.15;;;;;;;20.91;84.75;95761.69;5064804;28;20254;-79
2022/06/13 03:39:48;;;;;;;3.40;3.10;;;;;;;20.96;84.94;95780.09;5078831;28;20200;-79
2022/06/13 03:42:19;;;;;;;3.47;3.17;;;;;;;20.98;84.07;95791.09;5075475;28;20307;-80
2022/06/13 03:44:51;;;;;;;3.80;3.05;;;;;;;20.98;84.32;95785.84;5079185;28;20229;-79
2022/06/13 03:47:22;;;;;;;3.30;3.10;;;;;;;20.98;83.91;95782.44;5076824;28;20238;-79
2022/06/13 03:49:56;;;;;;;3.13;2.92;;;;;;;21.00;84.07;95789.03;5078359;28;20292;-79
2022/06/13 03:52:24;;;;;;;4.15;3.67;;;;;;;20.95;83.47;95788.19;5073734;28;20247;-79
2022/06/13 03:54:55;;;;;;;3.53;3.00;;;;;;;20.91;84.16;95800.16;5078979;28;20204;-80
2022/06/13 03:57:27;;;;;;;4.22;3.38;;;;;;;20.91;83.25;95795.69;5071526;28;20186;-79
2022/06/13 03:59:57;;;;;;;3.88;3.20;;;;;;;20.86;84.17;95789.56;5068337;28;20197;-79
2022/06/13 04:02:27;;;;;;;3.50;3.20;;;;;;;20.80;85.40;95787.91;5063795;28;20279;-80
2022/06/13 04:04:55;;;;;;;3.60;3.30;;;;;;;20.82;85.63;95780.59;5076317;28;20216;-78
2022/06/13 04:07:24;;;;;;;3.92;3.15;;;;;;;20.82;83.38;95781.41;5080489;28;20204;-79
2022/06/13 04:09:53;;;;;;;3.40;3.10;;;;;;;20.73;84.90;95771.56;5068359;28;20197;-80
2022/06/13 04:12:56;;;;;;;3.28;2.97;;;;;;;20.76;83.95;95766.66;5062775;28;20232;-80
2022/06/13 04:15:42;;;;;;;2.72;2.53;;;;;;;20.79;83.47;95767.97;5066799;28;20231;-80
2022/06/13 04:18:20;;;;;;;3.05;2.85;;;;;;;20.83;83.66;95771.72;5059236;28;20835;-79
2022/06/13 04:20:59;;;;;;;3.00;2.80;;;;;;;20.87;82.69;95776.25;5072259;28;20626;-79
2022/06/13 04:23:33;;;;;;;3.83;2.78;;;;;;;20.88;83.29;95777.84;5077551;28;20370;-79
2022/06/13 04:26:07;;;;;;;3.28;2.70;;;;;;;20.95;83.53;95777.72;5063591;28;20196;-79
2022/06/13 04:28:43;;;;;;;2.92;2.72;;;;;;;20.96;83.45;95785.31;5078130;28;20200;-79
2022/06/13 04:31:12;;;;;;;2.75;2.55;;;;;;;20.98;83.42;95772.78;5069699;28;20282;-79
2022/06/13 04:33:42;;;;;;;3.83;2.80;;;;;;;20.98;82.94;95772.78;5072246;28;20224;-79
2022/06/13 04:36:12;;;;;;;2.88;2.67;;;;;;;21.02;83.21;95773.09;5074243;28;20638;-79
2022/06/13 04:38:42;;;;;;;2.65;2.45;;;;;;;21.07;82.07;95775.81;5075800;28;20197;-80
2022/06/13 04:41:10;;;;;;;3.00;2.80;;;;;;;21.07;81.96;95770.56;5057735;28;20662;-79
2022/06/13 04:43:40;;;;;;;3.40;3.10;;;;;;;21.01;84.56;95767.06;5073351;28;20278;-79
2022/06/13 04:46:09;;;;;;;4.18;2.80;;;;;;;21.02;83.30;95763.41;5078095;28;20201;-80
2022/06/13 04:48:38;;;;;;;8.65;5.68;;;;;;;20.97;83.29;95765.19;5060483;28;20236;-79
2022/06/13 04:51:11;;;;;;;4.38;3.65;;;;;;;21.00;82.74;95764.69;5055272;28;20225;-79
2022/06/13 04:53:42;;;;;;;3.20;2.90;;;;;;;20.94;82.63;95776.91;5065991;28;20636;-80
2022/06/13 04:56:09;;;;;;;2.90;2.63;;;;;;;20.93;82.44;95782.38;5065839;28;20201;-79
2022/06/13 04:58:38;;;;;;;2.95;2.63;;;;;;;20.91;83.04;95798.31;5058062;28;20216;-79
2022/06/13 05:01:10;;;;;;;4.05;2.50;;;;;;;20.93;82.62;95790.25;5057088;28;20335;-79
2022/06/13 05:03:41;;;;;;;3.35;2.40;;;;;;;20.88;81.62;95790.94;5058443;28;20251;-79
2022/06/13 05:06:21;;;;;;;2.45;2.25;;;;;;;20.87;82.46;95785.94;5055851;28;20205;-80
2022/06/13 05:08:54;;;;;;;5.95;5.32;;;;;;;20.82;82.13;95791.06;5057742;28;20857;-79
2022/06/13 05:11:27;;;;;;;3.28;2.97;;;;;;;20.83;80.93;95798.69;5057008;28;20363;-79
2022/06/13 05:13:57;;;;;;;2.60;2.40;;;;;;;20.84;80.78;95807.34;5056551;28;20259;-79
2022/06/13 05:16:36;;;;;;;2.70;2.50;;;;;;;20.81;82.00;95811.22;5072289;28;20748;-79
2022/06/13 05:19:18;;;;;;;2.42;2.22;;;;;;;20.79;82.82;95791.53;5061119;28;20251;-80
2022/06/13 05:21:56;;;;;;;2.95;2.30;;;;;;;20.85;82.96;95801.88;5055050;28;20248;-79
2022/06/13 05:25:05;;;;;;;2.72;2.45;;;;;;;20.85;84.15;95798.47;5054913;28;20240;-78
2022/06/13 05:27:31;;;;;;;7.38;6.65;;;;;;;20.79;83.81;95778.44;5056023;28;20251;-82
2022/06/13 05:29:58;;;;;;;5.20;4.30;;;;;;;20.74;83.23;95784.41;5055007;28;20275;-79
2022/06/13 05:32:25;;;;;;;2.97;2.47;;;;;;;20.75;83.07;95780.78;5054003;28;20221;-79
2022/06/13 05:34:52;;;;;;;3.78;2.42;;;;;;;20.81;81.86;95777.19;5055698;28;20201;-80
2022/06/13 05:37:20;;;;;;;2.67;2.33;;;;;;;20.84;82.16;95783.78;5055527;28;20201;-79
2022/06/13 05:39:47;;;;;;;2.22;1.80;;;;;;;20.79;81.84;95781.88;5055915;28;20206;-79
2022/06/13 05:42:14;;;;;;;2.00;1.80;;;;;;;20.74;81.32;95789.66;5054424;28;20221;-79
2022/06/13 05:44:42;;;;;;;1.88;1.70;;;;;;;20.84;80.84;95781.16;5055338;28;20228;-80
2022/06/13 05:47:14;;;;;;;2.05;1.75;;;;;;;20.90;81.07;95788.88;5056098;28;20404;-79
2022/06/13 05:49:41;;;;;;;2.30;2.00;;;;;;;20.99;80.98;95784.03;5056546;28;20205;-79
2022/06/13 05:52:07;;;;;;;2.38;1.80;;;;;;;21.00;79.92;95783.00;5055586;28;20229;-80
2022/06/13 05:54:35;;;;;;;1.77;1.65;;;;;;;21.08;80.09;95790.47;5056449;28;20624;-80
2022/06/13 05:57:02;;;;;;;1.65;1.52;;;;;;;21.02;79.42;95788.81;5057546;28;20267;-80
2022/06/13 05:59:28;;;;;;;1.60;1.50;;;;;;;20.92;78.60;95792.06;5056880;28;20550;-79
2022/06/13 06:01:54;;;;;;;1.92;1.40;;;;;;;20.96;78.63;95781.91;5054783;28;20217;-79
2022/06/13 06:04:21;;;;;;;1.67;1.58;;;;;;;20.99;79.44;95774.34;5067974;28;20232;-79
2022/06/13 06:06:47;;;;;;;1.77;1.67;;;;;;;20.89;78.49;95773.41;5077067;28;20621;-79
2022/06/13 06:09:15;;;;;;;1.52;1.42;;;;;;;20.98;79.19;95782.44;5076923;28;20200;-79
2022/06/13 06:11:42;;;;;;;1.60;1.50;;;;;;;20.81;78.79;95782.44;5076037;28;20284;-79
2022/06/13 06:14:09;;;;;;;3.53;3.17;;;;;;;20.87;79.75;95791.16;5076067;28;20651;-79
2022/06/13 06:16:35;;;;;;;4.15;2.85;;;;;;;20.93;79.61;95780.56;5075837;28;20204;-79
2022/06/13 06:19:01;;;;;;;1.75;1.65;;;;;;;20.95;79.61;95782.94;5080858;28;20216;-80
2022/06/13 06:21:28;;;;;;;1.92;1.80;;;;;;;20.89;79.62;95778.63;5078008;28;20225;-79
2022/06/13 06:23:54;;;;;;;2.95;1.48;;;;;;;21.00;79.08;95775.16;5076031;28;20232;-79
2022/06/13 06:26:23;;;;;;;2.85;1.77;;;;;;;21.03;79.86;95782.53;5075978;28;20204;-79
2022/06/13 06:28:51;;;;;;;2.20;1.70;;;;;;;21.13;79.14;95769.63;5076497;28;20201;-79
2022/06/13 06:31:18;;;;;;;2.75;1.75;;;;;;;21.21;79.08;95779.72;5075812;28;20220;-79
2022/06/13 06:33:45;;;;;;;1.98;1.63;;;;;;;21.25;79.31;95788.69;5075814;28;20256;-80
2022/06/13 06:36:13;;;;;;;2.78;2.00;;;;;;;21.42;79.07;95791.31;5076820;28;20212;-80
2022/06/13 06:38:40;;;;;;;2.47;1.92;;;;;;;21.60;78.61;95790.25;5079231;28;20223;-80
2022/06/13 06:41:06;;;;;;;1.67;1.58;;;;;;;21.79;78.85;95793.41;5078852;28;20247;-79
2022/06/13 06:43:32;;;;;;;2.10;1.52;;;;;;;21.76;78.90;95794.69;5079715;28;20254;-79
2022/06/13 06:46:00;;;;;;;4.20;1.80;;;;;;;21.73;78.68;95795.19;5079158;28;20203;-79
2022/06/13 06:48:28;;;;;;;2.03;1.80;;;;;;;21.74;78.12;95796.78;5080303;28;20276;-79
2022/06/13 06:50:54;;;;;;;1.77;1.67;;;;;;;21.73;78.02;95792.56;5079224;28;20278;-79
2022/06/13 06:53:24;;;;;;;1.92;1.83;;;;;;;21.71;77.93;95794.63;5079003;28;20279;-80
2022/06/13 07:01:22;;;;;;;4.10;3.70;;;;;;;21.52;80.30;95795.91;5078785;28;20270;-79
2022/06/13 07:03:48;;;;;;;3.08;2.72;;;;;;;21.43;81.53;95807.81;5079280;28;20224;-82
2022/06/13 07:06:16;;;;;;;2.42;2.20;;;;;;;21.31;82.02;95803.47;5078231;28;20200;-82
2022/06/13 07:08:43;;;;;;;3.33;3.03;;;;;;;21.32;80.55;95809.50;5079265;28;20196;-78
2022/06/13 07:14:00;;;;;;;2.75;2.50;;;;;;;21.21;81.87;95808.53;5079983;28;20289;-79
2022/06/13 07:16:28;;;;;;;3.35;2.50;;;;;;;21.20;80.30;95817.41;5079263;28;20680;-79
2022/06/13 07:18:54;;;;;;;2.95;2.70;;;;;;;21.18;81.85;95816.81;5080327;28;20208;-79
2022/06/13 07:21:21;;;;;;;2.90;2.70;;;;;;;21.21;81.68;95816.38;5079281;28;20224;-80
2022/06/13 07:23:47;;;;;;;2.70;2.50;;;;;;;21.20;82.38;95816.63;5079380;28;20244;-79
2022/06/13 07:26:13;;;;;;;2.95;2.42;;;;;;;21.24;82.69;95820.34;5079408;28;20230;-79
2022/06/13 07:28:40;;;;;;;3.22;2.92;;;;;;;21.35;81.78;95820.31;5079886;28;20200;-79
2022/06/13 07:31:07;;;;;;;4.07;2.65;;;;;;;21.41;81.26;95820.34;5079482;28;20221;-79
2022/06/13 07:33:34;;;;;;;3.35;2.53;;;;;;;21.50;80.27;95814.50;5079404;28;20232;-79
2022/06/13 07:36:01;;;;;;;3.15;2.85;;;;;;;21.69;81.14;95823.69;5080487;28;20205;-81
2022/06/13 07:38:27;;;;;;;2.90;2.60;;;;;;;21.64;79.55;95822.81;5084308;28;20197;-78
2022/06/13 07:40:59;;;;;;;3.78;2.70;;;;;;;21.53;79.58;95827.13;5083397;28;20228;-79
2022/06/13 07:43:29;;;;;;;3.33;3.03;;;;;;;21.53;78.86;95819.25;5082910;28;20228;-79
2022/06/13 07:45:57;;;;;;;3.10;2.90;;;;;;;21.48;79.05;95818.38;5081742;28;20220;-79
2022/06/13 07:48:24;;;;;;;3.20;2.90;;;;;;;21.46;79.12;95818.63;5081049;28;20582;-80
2022/06/13 07:50:52;;;;;;;3.25;2.95;;;;;;;21.44;79.26;95828.53;5081341;28;20874;-79
2022/06/13 07:53:18;;;;;;;3.10;2.90;;;;;;;21.45;80.88;95830.13;5082610;28;20228;-79
2022/06/13 07:55:45;;;;;;;4.95;3.33;;;;;;;21.40;80.75;95837.09;5083138;28;20205;-80
2022/06/13 07:58:16;;;;;;;3.05;2.85;;;;;;;21.49;80.28;95835.69;5081991;28;20250;-79
2022/06/13 08:00:44;;;;;;;4.07;3.17;;;;;;;21.45;81.13;95839.81;5081534;28;20255;-80
2022/06/13 08:03:17;;;;;;;3.13;2.83;;;;;;;21.57;80.61;95841.31;5080980;28;20224;-80
2022/06/13 08:05:44;;;;;;;3.25;3.00;;;;;;;21.70;78.96;95848.06;5081943;28;20220;-79
2022/06/13 08:08:11;;;;;;;3.28;2.97;;;;;;;21.61;76.55;95834.56;5081590;28;20254;-79
2022/06/13 08:10:38;;;;;;;3.22;2.72;;;;;;;21.60;74.37;95834.81;5081304;28;20591;-79
2022/06/13 08:13:04;;;;;;;4.18;3.03;;;;;;;21.53;73.23;95842.84;5081227;28;20270;-78
2022/06/13 08:15:31;;;;;;;3.30;2.80;;;;;;;21.30;73.43;95843.00;5081167;28;20238;-81
2022/06/13 08:18:00;;;;;;;3.88;2.97;;;;;;;21.30;74.88;95845.63;5081118;28;20204;-79
2022/06/13 08:20:26;;;;;;;5.15;2.80;;;;;;;21.39;74.69;95849.41;5078850;28;20302;-80
2022/06/13 08:22:55;;;;;;;3.20;2.30;;;;;;;21.35;74.32;95856.19;5080834;28;20235;-79
2022/06/13 08:25:27;;;;;;;3.60;3.15;;;;;;;21.24;71.73;95855.19;5081417;28;20221;-79
2022/06/13 08:27:54;;;;;;;5.72;2.88;;;;;;;21.18;72.05;95855.31;5081037;28;20197;-80
2022/06/13 08:30:21;;;;;;;5.13;3.00;;;;;;;21.34;72.87;95859.84;5079129;28;20642;-79
2022/06/13 08:32:47;;;;;;;3.92;2.72;;;;;;;21.52;72.69;95856.97;5079649;28;20258;-79
2022/06/13 08:35:15;;;;;;;3.08;2.70;;;;;;;21.62;71.24;95862.38;5080075;28;20243;-79
2022/06/13 08:37:42;;;;;;;6.18;5.22;;;;;;;21.88;69.69;95853.06;5079995;28;20205;-78
2022/06/13 08:40:11;;;;;;;6.70;4.07;;;;;;;21.95;68.22;95865.97;5079187;28;20251;-80
2022/06/13 08:42:41;;;;;;;4.80;4.03;;;;;;;;;;5079097;28;20259;-79
2022/06/13 08:45:13;;;;;;;2.60;2.40;;;;;;;22.01;66.72;95857.19;5080077;28;20311;-78
2022/06/13 08:47:46;;;;;;;4.13;2.75;;;;;;;22.30;63.67;95860.47;5080007;28;20232;-79
2022/06/13 08:50:31;;;;;;;2.35;2.15;;;;;;;22.52;62.84;95860.47;5077770;28;20247;-80
2022/06/13 08:53:01;;;;;;;6.07;2.67;;;;;;;22.74;63.08;95864.66;5078740;28;20773;-79
2022/06/13 08:55:34;;;;;;;2.65;2.45;;;;;;;22.89;61.13;95861.47;5079228;28;20205;-79
2022/06/13 08:58:14;;;;;;;4.63;2.60;;;;;;;22.81;60.68;95861.09;5079954;28;20577;-79
2022/06/13 09:00:46;;;;;;;2.38;2.00;;;;;;;22.76;60.32;95861.78;5077537;28;20287;-79
2022/06/13 09:03:19;;;;;;;3.38;2.47;;;;;;;22.81;59.65;95863.72;5079013;28;20269;-79
2022/06/13 09:05:53;;;;;;;3.88;2.00;;;;;;;22.82;58.86;95866.09;5080055;28;20216;-79
2022/06/13 09:08:28;;;;;;;4.28;2.38;;;;;;;22.66;60.84;95872.19;5079358;28;20204;-79
2022/06/13 09:11:03;;;;;;;3.78;2.47;;;;;;;22.52;61.11;95881.47;5077320;28;20220;-79
2022/06/13 09:13:37;;;;;;;3.63;2.40;;;;;;;22.57;60.45;95882.31;5078038;28;20266;-79
2022/06/13 09:16:07;;;;;;;2.45;2.15;;;;;;;22.78;60.47;95883.38;5077841;28;20191;-78
2022/06/13 09:18:45;;;;;;;3.20;2.17;;;;;;;22.91;61.32;95885.63;5078464;28;20276;-79
2022/06/13 09:21:16;;;;;;;5.88;2.38;;;;;;;23.05;61.58;95876.34;5076216;28;20250;-80
2022/06/13 09:23:51;;;;;;;3.10;2.25;;;;;;;23.29;58.38;95889.94;5077278;28;20224;-78
2022/06/13 09:26:19;;;;;;;3.72;2.42;;;;;;;23.39;56.45;95886.63;5079386;28;20224;-80
2022/06/13 09:28:54;;;;;;;3.95;2.22;;;;;;;23.24;55.90;95884.66;5079309;28;20203;-79
2022/06/13 09:31:28;;;;;;;6.53;2.50;;;;;;;23.27;55.09;95881.53;5077526;28;20212;-79
2022/06/13 09:34:02;;;;;;;5.28;2.20;;;;;;;23.53;54.11;95897.56;5076981;28;20707;-79
2022/06/13 09:36:33;;;;;;;3.88;2.13;;;;;;;23.82;53.01;95890.16;5078268;28;20196;-79
2022/06/13 09:39:03;;;;;;;3.00;2.05;;;;;;;24.22;53.08;95884.38;5078330;28;20189;-78
2022/06/13 09:41:44;;;;;;;3.50;2.10;;;;;;;24.29;49.98;95891.00;5077642;28;20277;-79
2022/06/13 09:44:25;;;;;;;3.08;2.30;;;;;;;24.39;48.58;95888.44;5078411;28;20274;-79
2022/06/13 09:47:07;;;;;;;3.28;2.22;;;;;;;24.69;50.96;95892.25;5077486;28;20220;-79
2022/06/13 09:49:42;;;;;;;3.55;1.90;;;;;;;24.65;49.26;95893.81;5080454;28;20197;-79
2022/06/13 09:52:19;;;;;;;4.20;2.30;;;;;;;24.30;48.35;95884.69;5076349;28;20238;-80
2022/06/13 09:54:54;;;;;;;6.07;5.28;;;;;;;24.09;48.89;95878.50;5080074;28;20204;-79
2022/06/13 09:57:29;;;;;;;9.68;5.70;;;;;;;23.97;49.66;95895.53;5076833;28;20714;-79
2022/06/13 10:00:14;;;;;;;2.58;2.38;;;;;;;23.71;51.41;95897.16;5079545;28;20204;-78
2022/06/13 10:02:57;;;;;;;3.85;2.33;;;;;;;23.84;50.12;95891.50;5077470;28;20220;-79
2022/06/13 10:05:38;;;;;;;3.00;2.13;;;;;;;23.87;51.78;95890.19;5057242;28;20231;-79
2022/06/13 10:08:20;;;;;;;2.47;2.15;;;;;;;23.86;49.86;95889.38;5057447;28;20208;-79
2022/06/13 10:10:55;;;;;;;4.85;2.20;;;;;;;24.21;49.68;95888.06;5056827;28;20221;-79
2022/06/13 10:13:29;;;;;;;3.88;1.98;;;;;;;24.31;50.37;95885.50;5059010;28;20225;-79
2022/06/13 10:16:05;;;;;;;3.22;2.17;;;;;;;24.15;50.21;95897.75;5061911;28;20197;-79
2022/06/13 10:18:50;;;;;;;2.78;1.80;;;;;;;24.09;49.65;95896.91;5061942;28;20237;-79
2022/06/13 10:21:24;;;;;;;4.47;2.03;;;;;;;24.33;49.96;95892.09;5061663;28;20221;-78
2022/06/13 10:24:02;;;;;;;2.88;2.00;;;;;;;24.16;49.98;95904.59;5060690;28;20908;-80
2022/06/13 10:26:35;;;;;;;4.00;2.42;;;;;;;24.33;48.90;95896.56;5061930;28;20232;-79
2022/06/13 10:29:23;;;;;;;5.20;4.00;;;;;;;24.51;49.28;95896.13;5061453;28;20236;-79
2022/06/13 10:32:03;;;;;;;4.32;3.67;;;;;;;24.76;46.67;95901.50;5077853;28;20243;-79
2022/06/13 10:34:43;;;;;;;2.92;1.80;;;;;;;24.75;46.59;95897.28;5082187;28;20235;-79
2022/06/13 10:37:19;;;;;;;3.53;2.20;;;;;;;24.92;48.00;95901.56;5080585;28;20204;-79
2022/06/13 10:39:46;;;;;;;5.30;2.13;;;;;;;24.77;46.93;95897.81;5081080;28;20566;-78
2022/06/13 10:42:17;;;;;;;4.32;2.10;;;;;;;25.09;46.13;95900.31;5079796;28;20236;-79
2022/06/13 10:44:44;;;;;;;4.90;2.20;;;;;;;25.18;45.79;95907.72;5080104;28;20201;-79
2022/06/13 10:47:17;;;;;;;3.58;2.20;;;;;;;25.31;45.06;95904.56;5081173;28;20255;-80
2022/06/13 10:49:48;;;;;;;3.78;2.00;;;;;;;25.43;45.66;95911.19;5080734;28;20208;-79
2022/06/13 10:52:18;;;;;;;3.03;2.30;;;;;;;25.19;46.06;95907.47;5075257;28;20224;-80
2022/06/13 10:54:49;;;;;;;3.05;2.17;;;;;;;24.68;48.11;95902.00;5079882;28;20227;-79
2022/06/13 10:57:20;;;;;;;3.30;2.20;;;;;;;24.72;47.16;95904.91;5080309;28;20711;-79
2022/06/13 11:00:08;;;;;;;4.85;2.40;;;;;;;25.29;47.12;95902.19;5080593;28;20960;-81
2022/06/13 11:02:37;;;;;;;2.88;1.95;;;;;;;25.34;46.79;95914.59;5080338;28;20224;-80
2022/06/13 11:05:06;;;;;;;4.60;2.03;;;;;;;24.93;46.60;95903.94;5081103;28;20208;-80
2022/06/13 11:07:36;;;;;;;3.33;2.00;;;;;;;24.75;47.10;95914.94;5080965;28;20259;-80
2022/06/13 11:10:03;;;;;;;5.07;3.75;;;;;;;24.67;46.97;95908.31;5079424;28;20202;-79
2022/06/13 11:12:32;;;;;;;9.45;8.45;;;;;;;25.08;45.15;95919.81;5080825;28;20235;-79
2022/06/13 11:23:35;;;;;;;3.75;1.90;;;;;;;25.95;40.89;95904.13;5082436;28;20231;-79
2022/06/13 11:26:02;;;;;;;4.70;2.17;;;;;;;25.58;42.99;95907.78;5082994;28;20263;-79
2022/06/13 11:28:39;;;;;;;2.00;1.63;;;;;;;25.54;41.71;95903.28;5081935;28;20716;-80
2022/06/13 11:31:15;;;;;;;2.95;2.38;;;;;;;25.78;42.75;95902.53;5070855;28;20285;-80
2022/06/13 11:33:43;;;;;;;3.15;1.92;;;;;;;25.90;43.18;95910.19;5061776;28;20228;-79
2022/06/13 11:36:22;;;;;;;3.17;1.92;;;;;;;26.07;43.84;95907.25;5062272;28;20562;-79
2022/06/13 11:38:53;;;;;;;3.25;2.03;;;;;;;26.03;40.97;95904.34;5066396;28;20239;-80
2022/06/13 11:41:23;;;;;;;2.55;1.95;;;;;;;26.11;40.56;95916.22;5067140;28;20217;-79
2022/06/13 11:43:54;;;;;;;3.08;1.95;;;;;;;26.14;40.17;95900.66;5066518;28;20243;-79
2022/06/13 11:46:35;;;;;;;8.48;7.30;;;;;;;26.19;40.83;95901.69;5067286;28;20275;-80
2022/06/13 11:49:06;;;;;;;5.32;2.00;;;;;;;26.31;41.07;95899.59;5066975;28;20219;-79
2022/06/13 11:51:42;;;;;;;2.65;1.80;;;;;;;26.35;41.11;95890.88;5066222;28;20221;-80
2022/06/13 11:54:19;;;;;;;2.58;1.90;;;;;;;26.53;41.50;95896.63;5065005;28;20708;-80
2022/06/13 11:56:46;;;;;;;4.18;2.13;;;;;;;26.66;40.56;95898.69;5063885;28;20197;-80
2022/06/13 11:59:16;;;;;;;3.60;1.95;;;;;;;26.83;40.94;95889.38;5065907;28;20232;-81
2022/06/13 12:01:43;;;;;;;3.03;1.77;;;;;;;26.71;40.58;95898.69;5058622;28;20226;-79
2022/06/13 12:04:18;;;;;;;3.78;2.05;;;;;;;26.48;42.40;95892.16;5069012;28;20286;-80
2022/06/13 12:06:48;;;;;;;2.35;1.90;;;;;;;26.05;42.00;95890.91;5064115;28;20225;-80
2022/06/13 12:09:19;;;;;;;2.72;1.90;;;;;;;25.46;41.04;95905.38;5064609;28;20237;-80
2022/06/13 12:11:48;;;;;;;3.55;2.10;;;;;;;25.68;41.63;95902.53;5062616;28;20784;-80
2022/06/13 12:14:15;;;;;;;3.63;1.80;;;;;;;26.00;41.44;95912.78;5044588;28;20249;-80